Dades meteomassalio
Diari Summary for Gener 9, 2017 Units:  English    Metric   Both
« Previous Day
Next Day »
Diari Semanal Mensual Anual Personalitzat
  Maxima: Minima: Mijana:
Temperatura: TemperatureC °F 4.1 °F 7.2 °F
Rosada: DewpointC °F 1.4 °F 2.5 °F
Humitat: Humidity % 53 % 73 %
Velocitat del vent: WindSpeedKMH mph 0.0 mph 0.4 mph
Racha vent: WindSpeedGustKMH mph - -
Vent:- - ENE
Pressio: PressurehPa in 1023.6 in -
Pluja: 0.0 in    
Historical Graphs
 
 
Tabular Data for Gener 9, 2017
Time Temperature Dew Point Pressure Wind Wind Speed Wind Gust Humidity Rainfall Rate (Hourly) solar Conditions
TemperatureC °F DewpointC °F PressurehPa in Calm     Humidity % HourlyPrecipMM in SolarRadiationWatts/m^2 W/m2 Conditions
00:01 6.7 °F 3.2 °F 1028.7 in Calm     78 % 0.0 in 0.0 W/m2 CLR
00:06 6.7 °F 3.1 °F 1028.7 in Calm     78 % 0.0 in 0.0 W/m2 CLR
00:11 6.6 °F 3.0 °F 1028.7 in Calm     78 % 0.0 in 0.0 W/m2 CLR
00:16 6.5 °F 3.1 °F 1028.7 in Calm     79 % 0.0 in 0.0 W/m2 CLR
00:21 6.4 °F 3.1 °F 1028.7 in Calm     79 % 0.0 in 0.0 W/m2 CLR
00:26 6.3 °F 2.9 °F 1028.7 in Calm     79 % 0.0 in 0.0 W/m2 CLR
00:31 6.2 °F 2.8 °F 1028.7 in Calm     79 % 0.0 in 0.0 W/m2 CLR
00:36 6.2 °F 3.0 °F 1028.7 in Calm     80 % 0.0 in 0.0 W/m2 CLR
00:41 6.3 °F 3.1 °F 1028.7 in Calm     80 % 0.0 in 0.0 W/m2 CLR
00:46 6.2 °F 3.0 °F 1028.7 in Calm     80 % 0.0 in 0.0 W/m2 CLR
00:51 6.3 °F 3.1 °F 1028.7 in Calm     80 % 0.0 in 0.0 W/m2 CLR
00:56 6.3 °F 3.1 °F 1028.7 in Calm     80 % 0.0 in 0.0 W/m2 CLR
01:01 6.3 °F 3.1 °F 1028.7 in Calm     80 % 0.0 in 0.0 W/m2 CLR
01:06 6.2 °F 3.0 °F 1028.7 in Calm     80 % 0.0 in 0.0 W/m2 CLR
01:11 6.2 °F 3.0 °F 1028.7 in Calm     80 % 0.0 in 0.0 W/m2 CLR
01:16 6.3 °F 3.1 °F 1028.7 in Calm     80 % 0.0 in 0.0 W/m2 CLR
01:21 6.2 °F 3.0 °F 1028.7 in Calm     80 % 0.0 in 0.0 W/m2 CLR
01:26 6.2 °F 3.0 °F 1028.7 in Calm     80 % 0.0 in 0.0 W/m2 CLR
01:31 6.3 °F 3.1 °F 1028.7 in Calm     80 % 0.0 in 0.0 W/m2 CLR
01:36 6.3 °F 3.1 °F 1028.7 in Calm     80 % 0.0 in 0.0 W/m2 CLR
01:41 6.3 °F 3.1 °F 1028.7 in Calm     80 % 0.0 in 0.0 W/m2 CLR
01:46 6.2 °F 2.8 °F 1028.7 in Calm     79 % 0.0 in 0.0 W/m2 CLR
01:51 6.2 °F 2.9 °F 1028.7 in Calm     80 % 0.0 in 0.0 W/m2 CLR
01:56 6.2 °F 2.9 °F 1028.7 in Calm     80 % 0.0 in 0.0 W/m2 CLR
02:01 6.2 °F 3.0 °F 1028.7 in Calm     80 % 0.0 in 0.0 W/m2 CLR
02:06 6.2 °F 3.0 °F 1028.7 in Calm     80 % 0.0 in 0.0 W/m2 CLR
02:11 6.2 °F 3.0 °F 1028.7 in Calm     80 % 0.0 in 0.0 W/m2 CLR
02:16 6.1 °F 2.7 °F 1028.7 in Calm     79 % 0.0 in 0.0 W/m2 CLR
02:22 6.1 °F 2.7 °F 1028.7 in Calm     79 % 0.0 in 0.0 W/m2 CLR
02:27 5.9 °F 2.7 °F 1028.7 in Calm     80 % 0.0 in 0.0 W/m2 CLR
02:32 5.9 °F 2.7 °F 1028.7 in Calm     80 % 0.0 in 0.0 W/m2 CLR
02:37 5.9 °F 2.7 °F 1028.7 in Calm     80 % 0.0 in 0.0 W/m2 CLR
02:42 5.9 °F 2.7 °F 1028.7 in Calm     80 % 0.0 in 0.0 W/m2 CLR
02:47 5.9 °F 2.8 °F 1029.0 in Calm     80 % 0.0 in 0.0 W/m2 CLR
02:52 5.9 °F 2.7 °F 1029.0 in Calm     80 % 0.0 in 0.0 W/m2 CLR
02:57 6.0 °F 2.8 °F 1029.0 in Calm     80 % 0.0 in 0.0 W/m2 CLR
03:02 5.9 °F 2.7 °F 1029.0 in Calm     80 % 0.0 in 0.0 W/m2 CLR
03:07 5.8 °F 2.7 °F 1029.0 in Calm     80 % 0.0 in 0.0 W/m2 CLR
03:12 5.8 °F 2.7 °F 1029.0 in Calm     80 % 0.0 in 0.0 W/m2 CLR
03:17 5.8 °F 2.7 °F 1029.0 in Calm     80 % 0.0 in 0.0 W/m2 CLR
03:22 5.8 °F 2.6 °F 1029.0 in Calm     80 % 0.0 in 0.0 W/m2 CLR
03:27 5.8 °F 2.6 °F 1029.0 in Calm     80 % 0.0 in 0.0 W/m2 CLR
03:32 5.7 °F 2.6 °F 1029.0 in Calm     80 % 0.0 in 0.0 W/m2 CLR
03:37 5.8 °F 2.6 °F 1029.0 in Calm     80 % 0.0 in 0.0 W/m2 CLR
03:42 5.7 °F 2.6 °F 1029.0 in Calm     80 % 0.0 in 0.0 W/m2 CLR
03:47 5.8 °F 2.6 °F 1029.0 in Calm     80 % 0.0 in 0.0 W/m2 CLR
03:52 5.7 °F 2.6 °F 1029.0 in Calm     80 % 0.0 in 0.0 W/m2 CLR
03:57 5.7 °F 2.5 °F 1029.0 in Calm     80 % 0.0 in 0.0 W/m2 CLR
04:02 5.7 °F 2.6 °F 1029.0 in Calm     80 % 0.0 in 0.0 W/m2 CLR
04:07 5.7 °F 2.6 °F 1029.0 in Calm     80 % 0.0 in 0.0 W/m2 CLR
04:12 5.8 °F 2.6 °F 1029.0 in Calm     80 % 0.0 in 0.0 W/m2 CLR
04:17 5.8 °F 2.7 °F 1029.0 in Calm     80 % 0.0 in 0.0 W/m2 CLR
04:22 5.8 °F 2.7 °F 1029.0 in Calm     80 % 0.0 in 0.0 W/m2 CLR
04:27 5.8 °F 2.4 °F 1029.0 in Calm     79 % 0.0 in 0.0 W/m2 CLR
04:32 5.7 °F 2.4 °F 1029.0 in Calm     79 % 0.0 in 0.0 W/m2 CLR
04:37 5.6 °F 2.3 °F 1029.0 in Calm     79 % 0.0 in 0.0 W/m2 CLR
04:42 5.4 °F 2.2 °F 1029.0 in Calm     80 % 0.0 in 0.0 W/m2 CLR
04:47 5.4 °F 2.4 °F 1029.0 in Calm     81 % 0.0 in 0.0 W/m2 CLR
04:52 5.2 °F 2.1 °F 1029.0 in Calm     80 % 0.0 in 0.0 W/m2 CLR
04:57 5.3 °F 2.3 °F 1029.0 in Calm     81 % 0.0 in 0.0 W/m2 CLR
05:02 5.4 °F 2.3 °F 1029.0 in Calm     80 % 0.0 in 0.0 W/m2 CLR
05:07 5.4 °F 2.2 °F 1029.0 in Calm     80 % 0.0 in 0.0 W/m2 CLR
05:12 5.4 °F 2.4 °F 1029.0 in Calm     81 % 0.0 in 0.0 W/m2 CLR
05:17 5.3 °F 2.1 °F 1028.7 in Calm     80 % 0.0 in 0.0 W/m2 CLR
05:22 5.1 °F 2.1 °F 1028.7 in Calm     81 % 0.0 in 0.0 W/m2 CLR
05:27 5.1 °F 2.1 °F 1028.7 in Calm     81 % 0.0 in 0.0 W/m2 CLR
05:32 5.2 °F 2.2 °F 1028.7 in Calm     81 % 0.0 in 0.0 W/m2 CLR
05:37 5.2 °F 2.2 °F 1028.7 in Calm     81 % 0.0 in 0.0 W/m2 CLR
05:42 5.2 °F 2.2 °F 1028.7 in Calm     81 % 0.0 in 0.0 W/m2 CLR
05:47 5.2 °F 2.2 °F 1028.7 in Calm     81 % 0.0 in 0.0 W/m2 CLR
05:52 5.2 °F 2.2 °F 1028.7 in Calm     81 % 0.0 in 0.0 W/m2 CLR
05:57 5.2 °F 2.2 °F 1028.7 in Calm     81 % 0.0 in 0.0 W/m2 CLR
06:02 5.2 °F 2.2 °F 1028.7 in Calm     81 % 0.0 in 0.0 W/m2 CLR
06:07 5.1 °F 1.9 °F 1028.7 in Calm     80 % 0.0 in 0.0 W/m2 CLR
06:12 5.0 °F 1.8 °F 1028.7 in Calm     80 % 0.0 in 0.0 W/m2 CLR
06:17 4.9 °F 1.9 °F 1028.7 in Calm     81 % 0.0 in 0.0 W/m2 CLR
06:22 5.0 °F 2.0 °F 1028.7 in Calm     81 % 0.0 in 0.0 W/m2 CLR
06:27 5.1 °F 2.1 °F 1028.7 in Calm     81 % 0.0 in 0.0 W/m2 CLR
06:32 5.1 °F 1.9 °F 1028.7 in Calm     80 % 0.0 in 0.0 W/m2 CLR
06:37 5.0 °F 1.8 °F 1028.7 in Calm     80 % 0.0 in 0.0 W/m2 CLR
06:42 4.9 °F 1.9 °F 1028.7 in Calm     81 % 0.0 in 0.0 W/m2 CLR
06:47 4.9 °F 1.9 °F 1028.7 in Calm     81 % 0.0 in 0.0 W/m2 CLR
06:52 4.8 °F 1.8 °F 1028.7 in Calm     81 % 0.0 in 0.0 W/m2 CLR
06:57 4.7 °F 1.7 °F 1028.7 in Calm     81 % 0.0 in 0.0 W/m2 CLR
07:02 4.6 °F 1.6 °F 1028.7 in Calm     81 % 0.0 in 0.0 W/m2 CLR
07:07 4.6 °F 1.7 °F 1028.7 in Calm     82 % 0.0 in 0.0 W/m2 CLR
07:12 4.6 °F 1.7 °F 1029.0 in Calm     82 % 0.0 in 0.0 W/m2 CLR
07:17 4.6 °F 1.7 °F 1029.0 in Calm     82 % 0.0 in 0.0 W/m2 CLR
07:22 4.6 °F 1.8 °F 1029.0 in Calm     82 % 0.0 in 0.0 W/m2 CLR
07:27 4.6 °F 1.8 °F 1029.0 in Calm     82 % 0.0 in 0.0 W/m2 CLR
07:32 4.5 °F 1.7 °F 1029.0 in Calm     82 % 0.0 in 0.0 W/m2 CLR
07:38 4.4 °F 1.6 °F 1029.3 in Calm     82 % 0.0 in 0.0 W/m2 CLR
07:43 4.4 °F 1.6 °F 1029.3 in Calm     82 % 0.0 in 0.0 W/m2 CLR
07:48 4.4 °F 1.6 °F 1029.3 in Calm     82 % 0.0 in 0.0 W/m2 CLR
07:53 4.6 °F 1.7 °F 1029.3 in Calm     82 % 0.0 in 0.0 W/m2 CLR
07:58 4.5 °F 1.7 °F 1029.0 in Calm     82 % 0.0 in 0.0 W/m2 CLR
08:03 4.4 °F 1.6 °F 1029.3 in Calm     82 % 0.0 in 0.0 W/m2 CLR
08:08 4.2 °F 1.4 °F 1029.3 in Calm     82 % 0.0 in 0.0 W/m2 CLR
08:13 4.1 °F 1.5 °F 1029.3 in Calm     83 % 0.0 in 0.0 W/m2 CLR
08:18 4.1 °F 1.5 °F 1029.3 in Calm     83 % 0.0 in 0.0 W/m2 CLR
08:23 4.1 °F 1.5 °F 1029.3 in Calm     83 % 0.0 in 0.0 W/m2 CLR
08:28 4.2 °F 1.6 °F 1029.3 in Calm     83 % 0.0 in 5.0 W/m2 BKN
08:33 4.3 °F 1.6 °F 1029.3 in Calm     82 % 0.0 in 9.0 W/m2 BKN
08:38 4.3 °F 1.5 °F 1029.3 in Calm     82 % 0.0 in 11.0 W/m2 BKN
08:43 4.3 °F 1.5 °F 1029.3 in Calm     82 % 0.0 in 12.0 W/m2 BKN
08:44 4.3 °F 1.5 °F 1029.3 in Calm     82 % 0.0 in 12.0 W/m2 BKN
08:49 4.3 °F 1.7 °F 1029.3 in Calm     83 % 0.0 in 14.0 W/m2 BKN
08:54 4.4 °F 1.6 °F 1029.3 in Calm     82 % 0.0 in 16.0 W/m2 BKN
08:59 4.5 °F 1.7 °F 1029.3 in Calm     82 % 0.0 in 21.0 W/m2 BKN
09:04 4.6 °F 1.7 °F 1029.3 in Calm     82 % 0.0 in 30.0 W/m2 BKN
09:09 4.7 °F 1.9 °F 1029.3 in Calm     82 % 0.0 in 42.0 W/m2 BKN
09:14 4.9 °F 1.9 °F 1029.3 in Calm     81 % 0.0 in 51.0 W/m2 BKN
09:19 5.0 °F 2.0 °F 1029.3 in Calm     81 % 0.0 in 62.0 W/m2 BKN
09:24 5.2 °F 2.0 °F 1029.3 in Calm     80 % 0.0 in 72.0 W/m2 BKN
09:29 5.3 °F 2.2 °F 1029.3 in Calm     80 % 0.0 in 81.0 W/m2 BKN
09:34 5.5 °F 2.3 °F 1029.3 in Calm     80 % 0.0 in 84.0 W/m2 BKN
09:39 5.7 °F 2.3 °F 1029.3 in Calm     79 % 0.0 in 113.0 W/m2 BKN
09:45 6.0 °F 2.4 °F 1029.3 in Calm     78 % 0.0 in 127.0 W/m2 BKN
09:50 6.3 °F 2.6 °F 1029.7 in Calm     77 % 0.0 in 141.0 W/m2 BKN
09:55 6.6 °F 2.6 °F 1029.7 in Calm     76 % 0.0 in 156.0 W/m2 BKN
10:00 6.8 °F 2.7 °F 1029.3 in Calm     75 % 0.0 in 171.0 W/m2 BKN
10:05 7.0 °F 2.7 °F 1029.3 in Calm     74 % 0.0 in 167.0 W/m2 SCT
10:10 7.1 °F 2.8 °F 1029.7 in Calm     74 % 0.0 in 199.0 W/m2 SCT
10:15 7.3 °F 2.8 °F 1029.3 in Calm     73 % 0.0 in 144.0 W/m2 SCT
10:20 7.4 °F 2.9 °F 1029.3 in Calm     73 % 0.0 in 229.0 W/m2 SCT
10:25 7.4 °F 2.7 °F 1029.3 in Calm     72 % 0.0 in 243.0 W/m2 SCT
10:30 7.6 °F 2.8 °F 1029.3 in Calm     72 % 0.0 in 255.0 W/m2 SCT
10:35 7.7 °F 3.0 °F 1029.3 in Calm     72 % 0.0 in 265.0 W/m2 SCT
10:40 7.8 °F 2.9 °F 1029.3 in Calm     71 % 0.0 in 276.0 W/m2 SCT
10:45 7.9 °F 3.0 °F 1029.3 in Calm     71 % 0.0 in 288.0 W/m2 SCT
10:50 7.9 °F 3.0 °F 1029.3 in Calm     71 % 0.0 in 297.0 W/m2 SCT
10:55 8.1 °F 3.1 °F 1029.3 in Calm     71 % 0.0 in 308.0 W/m2 FEW
11:00 8.1 °F 2.9 °F 1029.3 in Calm     70 % 0.0 in 316.0 W/m2 FEW
11:05 8.2 °F 3.0 °F 1029.3 in Calm     70 % 0.0 in 327.0 W/m2 FEW
11:10 8.2 °F 2.9 °F 1029.3 in Calm     69 % 0.0 in 336.0 W/m2 FEW
11:15 8.2 °F 2.9 °F 1029.3 in Calm     69 % 0.0 in 343.0 W/m2 FEW
11:20 8.4 °F 3.0 °F 1029.3 in Calm     69 % 0.0 in 350.0 W/m2 FEW
11:25 8.5 °F 2.9 °F 1029.0 in Calm     68 % 0.0 in 359.0 W/m2 FEW
11:30 8.6 °F 3.1 °F 1029.0 in Calm     68 % 0.0 in 366.0 W/m2 FEW
11:35 8.7 °F 3.1 °F 1029.0 in Calm     68 % 0.0 in 373.0 W/m2 FEW
11:40 8.8 °F 2.8 °F 1029.0 in Calm     66 % 0.0 in 380.0 W/m2 FEW
11:45 8.8 °F 2.8 °F 1029.0 in Calm     66 % 0.0 in 385.0 W/m2 FEW
11:50 8.9 °F 3.3 °F 1029.0 in Calm     68 % 0.0 in 394.0 W/m2 FEW
11:55 8.9 °F 3.2 °F 1028.7 in Calm     67 % 0.0 in 399.0 W/m2 FEW
12:00 8.9 °F 2.9 °F 1028.7 in Calm     66 % 0.0 in 403.0 W/m2 FEW
12:05 9.1 °F 3.3 °F 1028.7 in Calm     67 % 0.0 in 408.0 W/m2 FEW
12:10 9.2 °F 2.9 °F 1028.3 in Calm     65 % 0.0 in 413.0 W/m2 FEW
12:15 9.2 °F 3.2 °F 1028.3 in Calm     66 % 0.0 in 418.0 W/m2 CLR
12:20 9.3 °F 3.4 °F 1028.3 in Calm     67 % 0.0 in 422.0 W/m2 CLR
12:26 9.5 °F 3.4 °F 1028.3 in Calm     66 % 0.0 in 425.0 W/m2 CLR
12:31 9.6 °F 3.3 °F 1028.0 in Calm     65 % 0.0 in 429.0 W/m2 CLR
12:36 9.6 °F 3.3 °F 1028.0 in Calm     65 % 0.0 in 432.0 W/m2 CLR
12:41 9.6 °F 3.3 °F 1028.0 in Calm     65 % 0.0 in 434.0 W/m2 CLR
12:46 9.9 °F 3.4 °F 1027.7 in Calm     64 % 0.0 in 438.0 W/m2 CLR
12:51 9.9 °F 3.4 °F 1027.7 in Calm     64 % 0.0 in 438.0 W/m2 CLR
12:56 9.9 °F 3.4 °F 1027.7 in Calm     64 % 0.0 in 439.0 W/m2 CLR
13:01 9.9 °F 2.9 °F 1027.7 in Calm     62 % 0.0 in 439.0 W/m2 CLR
13:06 9.9 °F 2.9 °F 1027.3 in Calm     62 % 0.0 in 441.0 W/m2 CLR
13:11 9.8 °F 3.1 °F 1027.3 in Calm     63 % 0.0 in 441.0 W/m2 CLR
13:16 10.1 °F 3.6 °F 1027.0 in Calm     64 % 0.0 in 441.0 W/m2 CLR
13:21 10.2 °F 3.5 °F 1027.0 in Calm     63 % 0.0 in 441.0 W/m2 CLR
13:26 10.4 °F 3.2 °F 1026.6 in Calm     61 % 0.0 in 439.0 W/m2 CLR
13:31 10.6 °F 3.6 °F 1026.6 in Calm     62 % 0.0 in 438.0 W/m2 CLR
13:36 10.6 °F 3.4 °F 1027.0 in Calm     61 % 0.0 in 438.0 W/m2 CLR
13:41 10.6 °F 3.6 °F 1026.6 in Calm     62 % 0.0 in 436.0 W/m2 CLR
13:46 10.6 °F 3.2 °F 1026.3 in Calm     60 % 0.0 in 434.0 W/m2 CLR
13:51 10.7 °F 3.3 °F 1026.6 in Calm     60 % 0.0 in 431.0 W/m2 CLR
13:56 10.8 °F 3.1 °F 1026.3 in Calm     59 % 0.0 in 427.0 W/m2 CLR
14:01 10.8 °F 3.3 °F 1026.3 in Calm     60 % 0.0 in 424.0 W/m2 CLR
14:06 10.9 °F 3.7 °F 1026.3 in Calm     61 % 0.0 in 420.0 W/m2 CLR
14:16 10.9 °F 3.2 °F 1026.0 in Calm     59 % 0.0 in 410.0 W/m2 CLR
14:21 11.1 °F 3.2 °F 1026.0 in Calm     58 % 0.0 in 404.0 W/m2 CLR
14:26 11.2 °F 3.3 °F 1026.0 in Calm     58 % 0.0 in 399.0 W/m2 CLR
14:31 11.3 °F 3.3 °F 1025.6 in Calm     58 % 0.0 in 394.0 W/m2 CLR
14:36 11.4 °F 3.2 °F 1025.6 in Calm     57 % 0.0 in 388.0 W/m2 CLR
14:41 11.6 °F 3.3 °F 1025.6 in Calm     57 % 0.0 in 383.0 W/m2 CLR
14:46 11.6 °F 3.1 °F 1025.3 in Calm     56 % 0.0 in 374.0 W/m2 CLR
14:51 11.6 °F 3.3 °F 1025.3 in Calm     57 % 0.0 in 369.0 W/m2 CLR
14:56 11.6 °F 3.3 °F 1025.3 in Calm     57 % 0.0 in 362.0 W/m2 CLR
15:01 11.5 °F 3.0 °F 1025.3 in Calm     56 % 0.0 in 353.0 W/m2 CLR
15:06 11.7 °F 3.5 °F 1025.3 in Calm     57 % 0.0 in 343.0 W/m2 CLR
15:11 11.7 °F 3.2 °F 1025.3 in Calm     56 % 0.0 in 336.0 W/m2 CLR
15:16 11.7 °F 3.5 °F 1024.9 in Calm     57 % 0.0 in 327.0 W/m2 CLR
15:21 11.6 °F 3.3 °F 1024.9 in Calm     57 % 0.0 in 316.0 W/m2 CLR
15:26 11.5 °F 3.3 °F 1024.9 in Calm     57 % 0.0 in 308.0 W/m2 CLR
15:31 11.7 °F 3.2 °F 1024.9 in Calm     56 % 0.0 in 297.0 W/m2 CLR
15:36 11.9 °F 3.4 °F 1024.9 in Calm     56 % 0.0 in 287.0 W/m2 CLR
15:41 11.8 °F 3.3 °F 1024.9 in Calm     56 % 0.0 in 274.0 W/m2 CLR
15:46 11.7 °F 3.5 °F 1024.9 in Calm     57 % 0.0 in 264.0 W/m2 CLR
15:51 11.9 °F 3.7 °F 1024.9 in Calm     57 % 0.0 in 250.0 W/m2 CLR
15:56 12.1 °F 3.3 °F 1024.9 in Calm     55 % 0.0 in 239.0 W/m2 CLR
16:01 12.0 °F 2.9 °F 1024.9 in Calm     54 % 0.0 in 223.0 W/m2 CLR
16:06 12.0 °F 2.7 °F 1024.6 in Calm     53 % 0.0 in 211.0 W/m2 CLR
16:12 11.9 °F 3.4 °F 1024.6 in Calm     56 % 0.0 in 197.0 W/m2 CLR
16:17 11.8 °F 3.3 °F 1024.6 in Calm     56 % 0.0 in 183.0 W/m2 CLR
16:22 11.7 °F 3.5 °F 1024.6 in Calm     57 % 0.0 in 169.0 W/m2 CLR
16:27 11.8 °F 3.3 °F 1024.6 in Calm     56 % 0.0 in 153.0 W/m2 CLR
16:32 11.8 °F 3.6 °F 1024.6 in Calm     57 % 0.0 in 139.0 W/m2 CLR
16:37 11.7 °F 3.5 °F 1024.6 in Calm     57 % 0.0 in 125.0 W/m2 CLR
16:42 11.6 °F 3.3 °F 1024.6 in Calm     57 % 0.0 in 113.0 W/m2 CLR
16:47 11.4 °F 3.4 °F 1024.6 in Calm     58 % 0.0 in 97.0 W/m2 CLR
16:52 11.4 °F 3.4 °F 1024.6 in Calm     58 % 0.0 in 84.0 W/m2 CLR
16:57 11.4 °F 3.4 °F 1024.3 in Calm     58 % 0.0 in 62.0 W/m2 CLR
17:02 11.3 °F 3.3 °F 1024.6 in Calm     58 % 0.0 in 46.0 W/m2 CLR
17:07 11.3 °F 3.6 °F 1024.6 in Calm     59 % 0.0 in 46.0 W/m2 OVC
17:12 11.1 °F 3.4 °F 1024.6 in Calm     59 % 0.0 in 35.0 W/m2 OVC
17:17 11.0 °F 3.3 °F 1024.6 in Calm     59 % 0.0 in 26.0 W/m2 OVC
17:22 10.8 °F 3.1 °F 1024.6 in Calm     59 % 0.0 in 19.0 W/m2 OVC
17:27 10.6 °F 3.2 °F 1024.6 in Calm     60 % 0.0 in 12.0 W/m2 OVC
17:32 10.3 °F 3.1 °F 1024.6 in Calm     61 % 0.0 in 12.0 W/m2 OVC
17:37 10.1 °F 2.9 °F 1024.6 in Calm     61 % 0.0 in 11.0 W/m2 OVC
17:42 9.9 °F 2.8 °F 1024.6 in Calm     61 % 0.0 in 9.0 W/m2 OVC
17:47 9.8 °F 2.9 °F 1024.6 in Calm     62 % 0.0 in 5.0 W/m2 OVC
17:52 9.4 °F 2.7 °F 1024.6 in Calm     63 % 0.0 in 0.0 W/m2 CLR
17:57 9.2 °F 2.6 °F 1024.6 in Calm     63 % 0.0 in 0.0 W/m2 CLR
18:02 8.9 °F 2.7 °F 1024.6 in Calm     65 % 0.0 in 0.0 W/m2 CLR
18:07 8.7 °F 2.7 °F 1024.6 in Calm     66 % 0.0 in 0.0 W/m2 CLR
18:12 8.5 °F 2.5 °F 1024.6 in Calm     66 % 0.0 in 0.0 W/m2 CLR
18:17 8.4 °F 2.6 °F 1024.6 in Calm     67 % 0.0 in 0.0 W/m2 CLR
18:22 8.2 °F 2.4 °F 1024.6 in Calm     67 % 0.0 in 0.0 W/m2 CLR
18:27 8.3 °F 2.6 °F 1024.6 in Calm     67 % 0.0 in 0.0 W/m2 CLR
18:32 8.1 °F 2.5 °F 1024.6 in Calm     68 % 0.0 in 0.0 W/m2 CLR
18:37 7.8 °F 2.3 °F 1024.6 in Calm     68 % 0.0 in 0.0 W/m2 CLR
18:42 7.6 °F 2.2 °F 1024.6 in Calm     69 % 0.0 in 0.0 W/m2 CLR
18:47 7.2 °F 2.1 °F 1024.6 in Calm     70 % 0.0 in 0.0 W/m2 CLR
18:52 6.9 °F 2.0 °F 1024.6 in Calm     71 % 0.0 in 0.0 W/m2 CLR
18:57 6.5 °F 1.8 °F 1024.6 in Calm     72 % 0.0 in 0.0 W/m2 CLR
19:02 6.2 °F 1.7 °F 1024.6 in Calm     73 % 0.0 in 0.0 W/m2 CLR
19:07 5.9 °F 1.6 °F 1024.6 in Calm     74 % 0.0 in 0.0 W/m2 CLR
19:12 5.6 °F 1.5 °F 1024.6 in Calm     75 % 0.0 in 0.0 W/m2 CLR
19:17 5.8 °F 2.3 °F 1024.6 in Calm     78 % 0.0 in 0.0 W/m2 CLR
19:22 6.2 °F 2.1 °F 1024.9 in Calm     75 % 0.0 in 0.0 W/m2 CLR
19:27 6.4 °F 2.3 °F 1024.9 in Calm     75 % 0.0 in 0.0 W/m2 CLR
19:32 6.3 °F 2.0 °F 1024.9 in Calm     74 % 0.0 in 0.0 W/m2 CLR
19:37 6.0 °F 1.7 °F 1024.6 in Calm     74 % 0.0 in 0.0 W/m2 CLR
19:42 5.7 °F 1.6 °F 1024.6 in Calm     75 % 0.0 in 0.0 W/m2 CLR
19:47 5.6 °F 1.7 °F 1024.6 in Calm     76 % 0.0 in 0.0 W/m2 CLR
19:52 5.5 °F 1.8 °F 1024.6 in Calm     77 % 0.0 in 0.0 W/m2 CLR
19:57 5.5 °F 1.9 °F 1024.9 in Calm     78 % 0.0 in 0.0 W/m2 CLR
20:02 5.5 °F 1.8 °F 1024.6 in Calm     77 % 0.0 in 0.0 W/m2 CLR
20:07 5.3 °F 1.6 °F 1024.9 in Calm     77 % 0.0 in 0.0 W/m2 CLR
20:12 5.2 °F 1.7 °F 1024.9 in Calm     78 % 0.0 in 0.0 W/m2 CLR
20:17 5.1 °F 1.8 °F 1024.9 in Calm     79 % 0.0 in 0.0 W/m2 CLR
20:22 5.2 °F 1.7 °F 1024.6 in Calm     78 % 0.0 in 0.0 W/m2 CLR
20:27 5.3 °F 1.8 °F 1024.9 in Calm     78 % 0.0 in 0.0 W/m2 CLR
20:32 5.4 °F 1.7 °F 1024.9 in Calm     77 % 0.0 in 0.0 W/m2 CLR
20:37 5.6 °F 1.9 °F 1024.6 in Calm     77 % 0.0 in 0.0 W/m2 CLR
20:42 5.7 °F 1.9 °F 1024.6 in Calm     77 % 0.0 in 0.0 W/m2 CLR
20:47 5.9 °F 2.0 °F 1024.6 in Calm     76 % 0.0 in 0.0 W/m2 CLR
20:52 6.1 °F 2.0 °F 1024.6 in Calm     75 % 0.0 in 0.0 W/m2 CLR
20:57 6.2 °F 1.9 °F 1024.6 in Calm     74 % 0.0 in 0.0 W/m2 CLR
21:02 6.3 °F 2.1 °F 1024.6 in Calm     74 % 0.0 in 0.0 W/m2 CLR
21:07 6.3 °F 2.1 °F 1024.6 in Calm     74 % 0.0 in 0.0 W/m2 CLR
21:12 6.4 °F 1.9 °F 1024.3 in Calm     73 % 0.0 in 0.0 W/m2 CLR
21:17 6.6 °F 2.3 °F 1024.3 in ENE 5.6 mph 5.6 mph 74 % 0.0 in 0.0 W/m2 CLR
21:22 7.2 °F 2.4 °F 1024.3 in ENE 9.3 mph 9.3 mph 72 % 0.0 in 0.0 W/m2 CLR
21:27 7.5 °F 2.6 °F 1024.3 in ENE 7.4 mph 7.4 mph 71 % 0.0 in 0.0 W/m2 CLR
21:32 7.5 °F 2.4 °F 1024.3 in Calm     70 % 0.0 in 0.0 W/m2 CLR
21:37 7.3 °F 2.2 °F 1024.3 in ENE 5.6 mph 5.6 mph 70 % 0.0 in 0.0 W/m2 CLR
21:42 7.1 °F 2.2 °F 1024.3 in ENE 1.9 mph   71 % 0.0 in 0.0 W/m2 CLR
21:47 7.1 °F 2.4 °F 1024.3 in ENE 18.5 mph 18.5 mph 72 % 0.0 in 0.0 W/m2 CLR
21:52 7.5 °F 2.6 °F 1024.3 in ENE 18.5 mph 18.5 mph 71 % 0.0 in 0.0 W/m2 CLR
21:57 7.6 °F 2.4 °F 1024.3 in ENE 16.7 mph 16.7 mph 70 % 0.0 in 0.0 W/m2 CLR
22:02 7.6 °F 2.6 °F 1024.3 in ENE 6.4 mph 6.4 mph 71 % 0.0 in 0.0 W/m2 CLR
22:07 7.5 °F 2.6 °F 1024.3 in ENE 7.4 mph 7.4 mph 71 % 0.0 in 0.0 W/m2 CLR
22:13 7.3 °F 2.4 °F 1024.3 in ENE 5.6 mph 5.6 mph 71 % 0.0 in 0.0 W/m2 CLR
22:18 7.1 °F 2.2 °F 1024.3 in ENE 3.7 mph 3.7 mph 71 % 0.0 in 0.0 W/m2 CLR
22:23 6.9 °F 2.2 °F 1023.9 in Calm     72 % 0.0 in 0.0 W/m2 CLR
22:28 6.7 °F 2.0 °F 1023.9 in Calm     72 % 0.0 in 0.0 W/m2 CLR
22:33 6.4 °F 1.9 °F 1023.9 in Calm     73 % 0.0 in 0.0 W/m2 CLR
22:38 6.3 °F 2.1 °F 1023.9 in Calm     74 % 0.0 in 0.0 W/m2 CLR
22:43 6.2 °F 1.9 °F 1023.9 in Calm     74 % 0.0 in 0.0 W/m2 CLR
22:48 6.0 °F 1.9 °F 1023.9 in Calm     75 % 0.0 in 0.0 W/m2 CLR
22:53 5.9 °F 2.1 °F 1023.9 in Calm     76 % 0.0 in 0.0 W/m2 CLR
22:58 5.8 °F 1.9 °F 1023.9 in ENE 3.7 mph   76 % 0.0 in 0.0 W/m2 CLR
23:03 5.8 °F 2.1 °F 1023.9 in ENE 11.1 mph   77 % 0.0 in 0.0 W/m2 CLR
23:08 5.9 °F 2.0 °F 1023.9 in Calm     76 % 0.0 in 0.0 W/m2 CLR
23:13 5.8 °F 1.9 °F 1023.9 in Calm     76 % 0.0 in 0.0 W/m2 CLR
23:18 5.8 °F 2.1 °F 1023.9 in Calm     77 % 0.0 in 0.0 W/m2 CLR
23:23 5.7 °F 2.0 °F 1023.9 in Calm     77 % 0.0 in 0.0 W/m2 CLR
23:28 5.6 °F 1.8 °F 1023.6 in Calm     77 % 0.0 in 0.0 W/m2 CLR
23:33 5.4 °F 1.7 °F 1023.6 in Calm     77 % 0.0 in 0.0 W/m2 CLR
23:38 5.4 °F 1.8 °F 1023.6 in Calm     78 % 0.0 in 0.0 W/m2 CLR
23:43 5.4 °F 1.8 °F 1023.6 in Calm     78 % 0.0 in 0.0 W/m2 CLR
23:48 5.4 °F 1.8 °F 1023.6 in Calm     78 % 0.0 in 0.0 W/m2 CLR
23:53 5.4 °F 1.8 °F 1023.6 in Calm     78 % 0.0 in 0.0 W/m2 CLR
23:58 5.3 °F 1.8 °F 1023.6 in Calm     78 % 0.0 in 0.0 W/m2 CLR
Lo Temps de Massalio
Compliments of Weather Underground - 1.25 mb